RKSO/OSN METAR and TAF weather

Enter ICAO airport designator
Station Type Date Time Source
RKSO METAR 2021/07/30 22:48 UTC NOAA

RKSO 302248Z AUTO 21004KT 10SM FEW016 SCT034 28/27 A2956 RMK AO2 SLP012


Station Type Date Time Source
RKSO Decoded METAR 2021/07/30 22:48 UTC NOAA

Osan Ab, Korea, South (RKSO) 37-06N 127-02E 12M
Jul 30, 2021 - 06:48 PM EDT / 2021.07.30 2248 UTC
Wind: from the SSW (210 degrees) at 5 MPH (4 KT):0
Visibility: 10 mile(s):0
Sky conditions: partly cloudy
Temperature: 82 F (28 C)
Dew Point: 80 F (27 C)
Relative Humidity: 94%
Pressure (altimeter): 29.56 in. Hg (1001 hPa)
ob: RKSO 302248Z AUTO 21004KT 10SM FEW016 SCT034 28/27 A2956 RMK AO2 SLP012
cycle: 23

Station Type Date Time Source
RKSO TAF 2021/07/30 13:03 UTC NOAA

TAF TAF RKSO 301300Z 3013/3119 VRB06KT 6000 -SHRA BKN030 BKN060 QNH2950INS
BECMG 3018/3019 VRB06KT 6000 BR OVC020 QNH2950INS
BECMG 3022/3023 18009KT 6000 -SHRA OVC015 QNH2950INS
BECMG 3103/3104 27010G15KT 9000 HZ SCT015 SCT030 QNH2948INS
BECMG 3113/3114 VRB06KT 8000 BR SCT015 QNH2957INS
BECMG 3117/3118 VRB06KT 8000 BR BKN015 QNH2956INS
BECMG 3118/3119 VRB06KT 8000 -SHRA SCT008 BKN010 QNH2956INS TX33/3105Z TN24/3018Z LAST NO
AMDS AFT 3015 NEXT 0121

Example: see airport list